createdAt,value
2022-11-20T00:01:10.111Z,20.45
2022-11-20T00:03:37.339Z,24.13
2022-11-20T00:06:06.895Z,17.33
2022-11-20T00:08:34.565Z,18.55
2022-11-20T00:11:15.338Z,12.95
2022-11-20T00:13:42.985Z,19.98
2022-11-20T00:16:11.182Z,15.98
2022-11-20T00:18:38.426Z,21.80
2022-11-20T00:21:07.686Z,18.70
2022-11-20T00:23:35.277Z,17.60
2022-11-20T00:26:07.479Z,21.17
2022-11-20T00:28:34.670Z,18.73
2022-11-20T00:31:06.813Z,24.30
2022-11-20T00:33:34.253Z,18.80
2022-11-20T00:36:09.401Z,20.67
2022-11-20T00:38:36.585Z,21.40
2022-11-20T00:41:06.864Z,18.70
2022-11-20T00:43:34.679Z,18.92
2022-11-20T00:46:04.036Z,21.48
2022-11-20T00:48:30.995Z,18.13
2022-11-20T00:50:58.475Z,17.58
2022-11-20T00:53:25.958Z,19.70
2022-11-20T00:56:06.451Z,20.33
2022-11-20T00:58:35.724Z,17.95
2022-11-20T01:01:10.909Z,20.25
2022-11-20T01:03:44.717Z,14.52
2022-11-20T01:06:17.471Z,18.10
2022-11-20T01:08:45.200Z,17.77
2022-11-20T01:11:17.759Z,17.75
2022-11-20T01:13:46.155Z,17.30
2022-11-20T01:16:25.750Z,16.23
2022-11-20T01:18:54.822Z,17.42
2022-11-20T01:21:24.868Z,21.55
2022-11-20T01:23:52.606Z,17.77
2022-11-20T01:26:23.033Z,18.55
2022-11-20T01:28:50.959Z,18.15
2022-11-20T01:31:22.377Z,21.40
2022-11-20T01:33:51.572Z,21.13
2022-11-20T01:36:20.138Z,20.10
2022-11-20T01:38:47.606Z,21.77
2022-11-20T01:41:36.131Z,18.73
2022-11-20T01:44:04.475Z,16.35
2022-11-20T01:46:34.908Z,23.38
2022-11-20T01:49:21.368Z,20.52
2022-11-20T01:52:02.462Z,17.38
2022-11-20T01:54:40.748Z,23.77
2022-11-20T01:57:11.847Z,22.05
2022-11-20T01:59:48.982Z,23.98
2022-11-20T02:02:21.488Z,21.38
2022-11-20T02:04:50.330Z,24.23
2022-11-20T02:07:18.507Z,27.98
2022-11-20T02:09:45.536Z,23.60
2022-11-20T02:12:32.450Z,28.95
2022-11-20T02:14:59.465Z,21.55
2022-11-20T02:17:27.068Z,22.67
2022-11-20T02:19:54.578Z,29.55
2022-11-20T02:22:49.273Z,31.92
2022-11-20T02:25:16.406Z,27.48
2022-11-20T02:27:43.839Z,32.40
2022-11-20T02:30:12.095Z,31.77
2022-11-20T02:32:39.897Z,27.13
2022-11-20T02:35:19.102Z,30.45
2022-11-20T02:37:48.863Z,32.30
2022-11-20T02:40:15.832Z,26.05
2022-11-20T02:42:42.876Z,31.58
2022-11-20T02:45:10.546Z,29.60
2022-11-20T02:47:37.701Z,27.08
2022-11-20T02:50:05.795Z,34.00
2022-11-20T02:52:33.181Z,34.10
2022-11-20T02:55:00.274Z,28.25
2022-11-20T02:57:27.315Z,41.20
2022-11-20T02:59:54.285Z,34.78
2022-11-20T03:02:21.619Z,28.52
2022-11-20T03:04:48.541Z,36.30
2022-11-20T03:07:15.605Z,32.90
2022-11-20T03:09:42.708Z,34.33
2022-11-20T03:12:09.804Z,37.47
2022-11-20T03:14:36.752Z,31.67
2022-11-20T03:17:03.675Z,37.03
2022-11-20T03:19:30.711Z,36.47
2022-11-20T03:21:57.657Z,35.78
2022-11-20T03:24:24.623Z,36.03
2022-11-20T03:26:51.535Z,38.13
2022-11-20T03:29:18.789Z,36.83
2022-11-20T03:31:46.026Z,35.55
2022-11-20T03:34:13.372Z,36.78
2022-11-20T03:36:42.622Z,35.42
2022-11-20T03:39:10.303Z,35.78
2022-11-20T03:41:39.557Z,35.08
2022-11-20T03:44:08.519Z,37.88
2022-11-20T03:46:35.694Z,34.20
2022-11-20T03:49:02.973Z,34.65
2022-11-20T03:51:35.380Z,36.30
2022-11-20T03:54:07.729Z,38.53
2022-11-20T03:56:37.912Z,36.13
2022-11-20T03:59:05.267Z,31.15
2022-11-20T04:01:35.047Z,38.35
2022-11-20T04:04:02.572Z,35.80
2022-11-20T04:06:32.120Z,35.45
2022-11-20T04:08:59.795Z,32.85
2022-11-20T04:11:29.795Z,37.33
2022-11-20T04:13:58.958Z,35.25
2022-11-20T04:16:27.419Z,32.75
2022-11-20T04:18:55.670Z,32.90
2022-11-20T04:21:23.474Z,33.63
2022-11-20T04:23:51.947Z,33.47
2022-11-20T04:26:18.847Z,31.77
2022-11-20T04:28:45.991Z,35.25
2022-11-20T04:31:19.991Z,34.75
2022-11-20T04:36:17.988Z,32.72
2022-11-20T04:38:45.410Z,37.65
2022-11-20T04:41:17.870Z,30.20
2022-11-20T04:43:49.678Z,34.78
2022-11-20T04:46:17.969Z,29.05
2022-11-20T04:48:45.178Z,29.63
2022-11-20T04:51:12.724Z,29.95
2022-11-20T04:53:39.764Z,37.92
2022-11-20T04:56:08.770Z,29.90
2022-11-20T04:58:36.051Z,33.20
2022-11-20T05:01:12.176Z,35.63
2022-11-20T05:03:42.513Z,33.30
2022-11-20T05:06:11.329Z,29.40
2022-11-20T05:08:38.306Z,33.00
2022-11-20T05:11:07.866Z,32.55
2022-11-20T05:13:35.306Z,32.15
2022-11-20T05:16:10.092Z,36.35
2022-11-20T05:18:38.235Z,37.33
2022-11-20T05:21:06.191Z,33.78
2022-11-20T05:23:33.656Z,32.05
2022-11-20T05:26:01.795Z,26.85
2022-11-20T05:28:30.243Z,33.40
2022-11-20T05:30:57.302Z,31.23
2022-11-20T05:33:24.338Z,31.85
2022-11-20T05:35:51.332Z,33.20
2022-11-20T05:38:18.297Z,34.20
2022-11-20T05:40:45.269Z,33.78
2022-11-20T05:43:12.271Z,47.03
2022-11-20T05:45:39.213Z,40.83
2022-11-20T05:48:06.268Z,72.65
2022-11-20T05:50:33.396Z,64.20
2022-11-20T05:53:01.198Z,43.42
2022-11-20T05:55:28.566Z,38.38
2022-11-20T05:57:56.211Z,37.30
2022-11-20T06:00:23.700Z,38.10
2022-11-20T06:02:50.815Z,36.10
2022-11-20T06:05:17.806Z,41.10
2022-11-20T06:07:44.857Z,29.65
2022-11-20T06:10:12.498Z,35.75
2022-11-20T06:12:39.584Z,36.88
2022-11-20T06:15:07.329Z,38.58
2022-11-20T06:17:34.428Z,38.72
2022-11-20T06:20:01.466Z,36.15
2022-11-20T06:22:28.569Z,38.78
2022-11-20T06:24:55.469Z,40.33
2022-11-20T06:27:22.499Z,36.05
2022-11-20T06:29:49.696Z,36.30
2022-11-20T06:32:16.620Z,46.97
2022-11-20T06:34:43.664Z,40.38
2022-11-20T06:37:10.559Z,31.77
2022-11-20T06:39:37.553Z,36.88
2022-11-20T06:42:04.650Z,35.13
2022-11-20T06:44:31.679Z,33.83
2022-11-20T06:46:58.606Z,34.15
2022-11-20T06:49:26.382Z,33.20
2022-11-20T06:51:53.371Z,37.10
2022-11-20T06:54:20.310Z,38.78
2022-11-20T06:56:50.718Z,41.20
2022-11-20T06:59:17.648Z,39.53
2022-11-20T07:01:44.555Z,34.08
2022-11-20T07:04:11.499Z,41.05
2022-11-20T07:06:38.353Z,39.80
2022-11-20T07:09:21.782Z,37.63
2022-11-20T07:11:48.725Z,41.15
2022-11-20T07:14:15.770Z,42.53
2022-11-20T07:16:42.687Z,37.60
2022-11-20T07:19:09.643Z,35.58
2022-11-20T07:21:36.601Z,38.63
2022-11-20T07:24:03.868Z,36.33
2022-11-20T07:26:30.770Z,36.88
2022-11-20T07:28:57.718Z,42.17
2022-11-20T07:31:24.594Z,40.72
2022-11-20T07:33:51.597Z,42.35
2022-11-20T07:36:18.780Z,44.72
2022-11-20T07:38:45.765Z,41.90
2022-11-20T07:41:12.704Z,40.28
2022-11-20T07:43:41.483Z,49.08
2022-11-20T07:46:08.744Z,35.35
2022-11-20T07:48:35.706Z,38.90
2022-11-20T07:51:02.881Z,41.92
2022-11-20T07:53:29.802Z,38.58
2022-11-20T07:56:00.240Z,37.55
2022-11-20T07:58:27.525Z,38.65
2022-11-20T08:00:54.577Z,38.05
2022-11-20T08:03:25.008Z,33.90
2022-11-20T08:05:57.028Z,40.80
2022-11-20T08:08:24.695Z,37.53
2022-11-20T08:10:52.125Z,29.90
2022-11-20T08:13:37.744Z,32.63
2022-11-20T08:18:48.170Z,30.70
2022-11-20T08:21:15.353Z,42.28
2022-11-20T08:23:42.828Z,35.05
2022-11-20T08:26:10.498Z,32.90
2022-11-20T08:28:38.092Z,34.20
2022-11-20T08:31:05.619Z,37.47
2022-11-20T08:33:33.963Z,39.97
2022-11-20T08:36:02.611Z,37.08
2022-11-20T08:38:30.352Z,35.00
2022-11-20T08:41:20.772Z,34.53
2022-11-20T08:43:48.456Z,35.00
2022-11-20T08:46:15.828Z,33.20
2022-11-20T08:48:43.767Z,36.75
2022-11-20T08:51:11.678Z,33.60
2022-11-20T08:53:40.358Z,35.72
2022-11-20T08:56:08.082Z,46.95
2022-11-20T08:58:55.078Z,33.53
2022-11-20T09:01:24.601Z,38.22
2022-11-20T09:03:52.126Z,32.00
2022-11-20T09:06:19.774Z,32.38
2022-11-20T09:08:48.286Z,29.77
2022-11-20T09:11:15.757Z,32.85
2022-11-20T09:13:43.002Z,29.95
2022-11-20T09:16:10.578Z,27.85
2022-11-20T09:18:39.468Z,31.98
2022-11-20T09:21:11.353Z,27.38
2022-11-20T09:23:39.628Z,39.17
2022-11-20T09:26:08.950Z,34.15
2022-11-20T09:28:36.697Z,40.67
2022-11-20T09:31:18.250Z,33.47
2022-11-20T09:33:48.181Z,38.50
2022-11-20T09:36:15.646Z,41.85
2022-11-20T09:39:03.137Z,36.45
2022-11-20T09:41:55.954Z,38.83
2022-11-20T09:44:51.033Z,47.00
2022-11-20T09:50:27.349Z,35.35
2022-11-20T09:53:13.014Z,44.25
2022-11-20T09:55:40.673Z,60.75
2022-11-20T09:58:14.146Z,42.67
2022-11-20T10:00:41.533Z,37.10
2022-11-20T10:03:54.971Z,37.90
2022-11-20T10:06:35.770Z,48.88
2022-11-20T10:09:24.673Z,40.83
2022-11-20T10:12:20.179Z,48.47
2022-11-20T10:15:27.795Z,49.08
2022-11-20T10:18:10.355Z,44.67
2022-11-20T10:21:14.773Z,41.47
2022-11-20T10:24:00.675Z,36.97
2022-11-20T10:26:33.581Z,34.38
2022-11-20T10:31:43.729Z,85.55
2022-11-20T10:34:34.438Z,765.35
2022-11-20T10:37:27.374Z,44.03
2022-11-20T10:40:19.964Z,46.72
2022-11-20T10:43:18.115Z,38.35
2022-11-20T10:46:08.179Z,37.97
2022-11-20T10:48:37.465Z,35.63
2022-11-20T10:51:57.631Z,34.80
2022-11-20T10:54:47.025Z,36.90
2022-11-20T10:57:49.927Z,31.80
2022-11-20T11:00:19.739Z,37.03
2022-11-20T11:02:57.439Z,31.35
2022-11-20T11:05:50.151Z,28.63
2022-11-20T11:08:27.249Z,31.52
2022-11-20T11:11:54.538Z,34.63
2022-11-20T11:14:22.293Z,40.03
2022-11-20T11:16:58.063Z,37.40
2022-11-20T11:19:25.974Z,34.60
2022-11-20T11:22:19.214Z,45.33
2022-11-20T11:24:56.030Z,40.28
2022-11-20T11:27:24.189Z,39.22
2022-11-20T11:30:05.391Z,46.03
2022-11-20T11:32:34.093Z,40.97
2022-11-20T11:35:20.326Z,43.92
2022-11-20T11:37:49.450Z,39.35
2022-11-20T11:40:26.539Z,31.08
2022-11-20T11:43:03.961Z,33.38
2022-11-20T11:45:37.129Z,40.00
2022-11-20T11:48:09.661Z,43.53
2022-11-20T11:50:37.447Z,38.75
2022-11-20T11:53:15.937Z,48.63
2022-11-20T11:55:49.525Z,46.33
2022-11-20T12:09:33.866Z,30.20
2022-11-20T12:12:19.811Z,32.50
2022-11-20T12:14:51.347Z,74.85
2022-11-20T12:17:19.339Z,33.97
2022-11-20T12:19:47.100Z,26.55
2022-11-20T12:22:43.851Z,28.48
2022-11-20T12:25:40.943Z,30.55
2022-11-20T12:28:30.957Z,32.33
2022-11-20T12:31:31.586Z,34.38
2022-11-20T12:34:28.102Z,29.63
2022-11-20T12:37:26.421Z,34.28
2022-11-20T12:40:17.288Z,29.98
2022-11-20T12:43:28.948Z,31.63
2022-11-20T12:46:36.538Z,31.17
2022-11-20T12:49:28.897Z,30.65
2022-11-20T12:51:59.673Z,27.48
2022-11-20T12:54:51.622Z,29.77
2022-11-20T12:58:06.722Z,125.60
2022-11-20T13:00:36.729Z,28.40
2022-11-20T13:03:11.950Z,31.55
2022-11-20T13:06:07.628Z,36.80
2022-11-20T13:08:40.229Z,29.50
2022-11-20T13:11:41.396Z,24.40
2022-11-20T13:14:41.209Z,29.52
2022-11-20T13:17:17.685Z,28.27
2022-11-20T13:19:54.131Z,28.55
2022-11-20T13:22:30.774Z,28.02
2022-11-20T13:24:58.750Z,28.40
2022-11-20T13:27:28.154Z,29.17
2022-11-20T13:30:19.326Z,33.60
2022-11-20T13:33:09.287Z,38.22
2022-11-20T13:35:45.177Z,52.70
2022-11-20T13:38:17.169Z,53.00
2022-11-20T13:41:26.721Z,37.35
2022-11-20T13:44:04.116Z,39.45
2022-11-20T13:46:46.652Z,34.08
2022-11-20T13:49:31.074Z,34.35
2022-11-20T13:52:42.123Z,34.88
2022-11-20T13:55:34.815Z,31.70
2022-11-20T13:58:39.682Z,39.20
2022-11-20T14:04:41.460Z,30.52
2022-11-20T14:07:13.632Z,32.90
2022-11-20T14:09:58.154Z,30.65
2022-11-20T14:12:34.966Z,34.42
2022-11-20T14:15:03.965Z,42.15
2022-11-20T14:18:00.320Z,40.40
2022-11-20T14:20:31.555Z,76.25
2022-11-20T14:23:29.946Z,50.60
2022-11-20T14:25:58.363Z,47.60
2022-11-20T14:28:31.377Z,43.08
2022-11-20T14:30:59.790Z,43.58
2022-11-20T14:33:30.055Z,58.38
2022-11-20T14:36:00.840Z,29.77
2022-11-20T14:38:35.726Z,44.13
2022-11-20T14:41:21.390Z,40.92
2022-11-20T14:43:56.552Z,43.58
2022-11-20T14:46:25.920Z,39.22
2022-11-20T14:48:58.805Z,47.63
2022-11-20T14:53:57.910Z,35.13
2022-11-20T14:56:26.243Z,35.75
2022-11-20T14:58:59.015Z,34.35
2022-11-20T15:04:16.595Z,85.78
2022-11-20T15:06:53.909Z,77.40
2022-11-20T15:09:21.972Z,63.92
2022-11-20T15:12:01.458Z,52.10
2022-11-20T15:14:30.899Z,45.42
2022-11-20T15:16:58.993Z,34.10
2022-11-20T15:19:27.956Z,29.48
2022-11-20T15:21:55.539Z,41.22
2022-11-20T15:24:23.487Z,32.95
2022-11-20T15:26:51.297Z,30.10
2022-11-20T15:29:26.093Z,31.70
2022-11-20T15:31:55.037Z,53.70
2022-11-20T15:34:22.696Z,47.75
2022-11-20T15:36:50.251Z,35.20
2022-11-20T15:39:17.720Z,35.25
2022-11-20T15:41:45.222Z,39.75
2022-11-20T15:44:13.540Z,89.90
2022-11-20T15:46:43.927Z,155.80
2022-11-20T15:49:17.686Z,103.25
2022-11-20T15:51:48.108Z,114.82
2022-11-20T15:54:19.182Z,86.95
2022-11-20T15:56:47.022Z,71.15
2022-11-20T15:59:18.361Z,68.28
2022-11-20T16:01:46.589Z,63.92
2022-11-20T16:04:16.426Z,66.07
2022-11-20T16:06:44.282Z,74.10
2022-11-20T16:09:11.500Z,76.93
2022-11-20T16:11:38.998Z,78.07
2022-11-20T16:14:25.973Z,131.77
2022-11-20T16:16:53.527Z,124.28
2022-11-20T16:19:21.363Z,177.45
2022-11-20T16:21:48.881Z,148.75
2022-11-20T16:24:17.655Z,121.07
2022-11-20T16:26:45.142Z,115.57
2022-11-20T16:29:12.811Z,77.40
2022-11-20T16:31:41.881Z,80.80
2022-11-20T16:34:12.569Z,65.70
2022-11-20T16:36:44.891Z,70.18
2022-11-20T16:39:13.156Z,56.70
2022-11-20T16:41:41.409Z,62.60
2022-11-20T16:44:12.040Z,66.25
2022-11-20T16:46:41.239Z,59.30
2022-11-20T16:49:14.701Z,65.63
2022-11-20T16:51:43.288Z,59.22
2022-11-20T16:54:13.060Z,72.80
2022-11-20T16:56:42.572Z,70.53
2022-11-20T16:59:09.579Z,68.60
2022-11-20T17:01:39.140Z,57.45
2022-11-20T17:04:07.626Z,54.45
2022-11-20T17:06:37.459Z,60.03
2022-11-20T17:09:06.548Z,67.57
2022-11-20T17:11:34.370Z,79.60
2022-11-20T17:14:04.770Z,79.05
2022-11-20T17:16:33.759Z,106.75
2022-11-20T17:19:03.455Z,101.45
2022-11-20T17:21:38.556Z,118.88
2022-11-20T17:24:09.765Z,116.10
2022-11-20T17:26:38.508Z,130.10
2022-11-20T17:29:08.280Z,154.30
2022-11-20T17:31:36.380Z,148.55
2022-11-20T17:34:03.871Z,139.52
2022-11-20T17:36:32.243Z,133.63
2022-11-20T17:39:04.450Z,142.07
2022-11-20T17:41:32.052Z,132.70
2022-11-20T17:44:01.228Z,135.65
2022-11-20T17:46:34.011Z,135.65
2022-11-20T17:51:33.712Z,122.20
2022-11-20T17:54:04.186Z,152.60
2022-11-20T17:56:51.545Z,144.80
2022-11-20T17:59:20.382Z,150.63
2022-11-20T18:01:48.369Z,176.20
2022-11-20T18:04:17.077Z,179.13
2022-11-20T18:06:44.535Z,168.07
2022-11-20T18:09:12.800Z,160.32
2022-11-20T18:11:41.994Z,170.15
2022-11-20T18:14:31.888Z,152.50
2022-11-20T18:17:11.762Z,154.95
2022-11-20T18:20:01.063Z,169.38
2022-11-20T18:22:32.874Z,156.48
2022-11-20T18:25:01.394Z,161.13
2022-11-20T18:27:31.075Z,153.77
2022-11-20T18:29:58.590Z,143.25
2022-11-20T18:32:25.603Z,157.65
2022-11-20T18:34:54.036Z,138.68
2022-11-20T18:37:21.715Z,152.40
2022-11-20T18:39:50.861Z,153.32
2022-11-20T18:42:36.940Z,137.75
2022-11-20T18:45:08.881Z,150.02
2022-11-20T18:47:39.601Z,147.60
2022-11-20T18:50:11.520Z,145.10
2022-11-20T18:52:45.126Z,140.20
2022-11-20T18:55:15.545Z,139.65
2022-11-20T18:57:43.345Z,136.05
2022-11-20T19:00:14.579Z,129.05
2022-11-20T19:02:43.216Z,156.45
2022-11-20T19:05:15.539Z,150.20
2022-11-20T19:10:11.791Z,152.00
2022-11-20T19:12:39.507Z,159.57
2022-11-20T19:15:09.182Z,189.50
2022-11-20T19:17:36.794Z,174.80
2022-11-20T19:20:05.064Z,171.73
2022-11-20T19:22:32.430Z,177.55
2022-11-20T19:24:59.914Z,223.95
2022-11-20T19:27:27.365Z,241.88
2022-11-20T19:30:01.959Z,231.75
2022-11-20T19:32:29.158Z,248.20
2022-11-20T19:34:56.484Z,262.02
2022-11-20T19:37:26.270Z,299.30
2022-11-20T19:39:55.139Z,279.30
2022-11-20T19:42:23.214Z,266.02
2022-11-20T19:44:50.616Z,244.80
2022-11-20T19:47:17.915Z,214.45
2022-11-20T19:49:45.267Z,195.50
2022-11-20T19:52:12.778Z,192.55
2022-11-20T19:54:40.274Z,192.05
2022-11-20T19:57:12.691Z,206.18
2022-11-20T20:02:10.140Z,183.80
2022-11-20T20:04:37.605Z,193.75
2022-11-20T20:07:06.260Z,198.77
2022-11-20T20:09:34.363Z,184.77
2022-11-20T20:12:01.984Z,186.00
2022-11-20T20:14:29.631Z,193.95
2022-11-20T20:16:57.083Z,193.93
2022-11-20T20:19:24.763Z,187.60
2022-11-20T20:21:52.620Z,202.07
2022-11-20T20:24:20.327Z,230.30
2022-11-20T20:26:47.674Z,218.48
2022-11-20T20:29:15.305Z,216.48
2022-11-20T20:31:42.745Z,192.63
2022-11-20T20:34:10.266Z,201.82
2022-11-20T20:36:39.240Z,195.57
2022-11-20T20:39:06.996Z,224.80
2022-11-20T20:41:34.520Z,204.95
2022-11-20T20:44:20.693Z,211.35
2022-11-20T20:46:48.177Z,205.13
2022-11-20T20:49:15.503Z,215.77
2022-11-20T20:51:42.993Z,190.65
2022-11-20T20:54:10.580Z,187.90
2022-11-20T20:56:39.110Z,225.38
2022-11-20T20:59:07.119Z,226.85
2022-11-20T21:01:35.181Z,199.27
2022-11-20T21:04:06.838Z,207.98
2022-11-20T21:06:34.594Z,252.87
2022-11-20T21:09:01.982Z,272.25
2022-11-20T21:11:29.077Z,247.20
2022-11-20T21:13:56.557Z,237.30
2022-11-20T21:16:25.195Z,224.27
2022-11-20T21:18:52.233Z,204.57
2022-11-20T21:21:37.680Z,217.02
2022-11-20T21:24:05.076Z,232.63
2022-11-20T21:26:32.575Z,227.82
2022-11-20T21:28:59.749Z,232.57
2022-11-20T21:31:27.424Z,235.82
2022-11-20T21:33:55.993Z,235.35
2022-11-20T21:36:25.950Z,268.45
2022-11-20T21:38:57.621Z,246.68
2022-11-20T21:41:26.879Z,224.65
2022-11-20T21:44:29.017Z,211.07
2022-11-20T21:46:44.609Z,250.55
2022-11-20T21:49:12.003Z,269.90
2022-11-20T21:51:39.166Z,304.83
2022-11-20T21:54:06.155Z,289.40
2022-11-20T21:56:33.835Z,285.50
2022-11-20T21:59:00.739Z,268.10
2022-11-20T22:01:31.299Z,287.95
2022-11-20T22:04:00.789Z,275.98
2022-11-20T22:06:34.934Z,281.23
2022-11-20T22:09:03.204Z,282.95
2022-11-20T22:11:30.433Z,296.05
2022-11-20T22:14:16.015Z,299.27
2022-11-20T22:16:43.447Z,310.60
2022-11-20T22:19:10.519Z,301.83
2022-11-20T22:21:40.635Z,288.00
2022-11-20T22:24:08.624Z,288.80
2022-11-20T22:26:40.554Z,289.10
2022-11-20T22:29:12.478Z,298.23
2022-11-20T22:31:39.892Z,289.63
2022-11-20T22:34:09.857Z,288.45
2022-11-20T22:36:37.862Z,301.90
2022-11-20T22:39:05.931Z,292.15
2022-11-20T22:41:33.560Z,271.45
2022-11-20T22:44:05.599Z,242.43
2022-11-20T22:46:35.700Z,234.93
2022-11-20T22:49:06.275Z,237.00
2022-11-20T22:51:36.332Z,239.48
2022-11-20T22:54:04.338Z,241.15
2022-11-20T22:56:32.394Z,233.77
2022-11-20T22:58:59.709Z,221.48
2022-11-20T23:01:29.313Z,197.95
2022-11-20T23:03:58.768Z,189.20
2022-11-20T23:06:26.812Z,197.52
2022-11-20T23:08:54.873Z,203.70
2022-11-20T23:11:28.549Z,199.52
2022-11-20T23:14:00.985Z,178.65
2022-11-20T23:16:29.855Z,169.63
2022-11-20T23:18:59.455Z,185.80
2022-11-20T23:21:27.492Z,181.93
2022-11-20T23:23:56.928Z,160.85
2022-11-20T23:26:26.719Z,181.93
2022-11-20T23:28:55.300Z,173.57
2022-11-20T23:31:23.018Z,151.35
2022-11-20T23:33:50.410Z,153.95
2022-11-20T23:36:18.042Z,180.95
2022-11-20T23:38:45.407Z,192.05
2022-11-20T23:41:13.463Z,179.00
2022-11-20T23:43:41.114Z,203.77
2022-11-20T23:46:12.653Z,253.07
2022-11-20T23:48:45.332Z,247.25
2022-11-20T23:51:13.622Z,219.05
2022-11-20T23:53:41.248Z,199.98
2022-11-20T23:56:08.576Z,195.35
2022-11-20T23:58:37.764Z,176.10
